Weather at Yendi Airport

Public forecast

Using degrees Celsius for public forecast. Weather courtesy of forecast.io.

Closest aviation weather report (METAR) to Yendi Airport

Report is more than 6 hours old.

Closest report is Tamale Airport, 51.5 nm (95.3 km) W. Retrieved 2020/10/23 16:00 UTC (1 day ago):

DGLE 231600Z 14002KT 9999 FEW017 35/21 Q1011 NOSIG

Closest aviation forecast (TAF) to Yendi Airport

Closest forecast is Niamtougou International Airport, 68.1 nm (126.0 km) ENE. Retrieved 2020/10/24 18:57 UTC (4 hours ago):

TAF DXNG 241700Z 2418/2518 VRB03KT 9999 FEW007